sensor_id;sensor_type;location;lat;lon;timestamp;pressure;altitude;pressure_sealevel;temperature
33877;BMP180;20166;51.738;7.158;2023-08-31T00:02:20;100262.00;;;13.30
33877;BMP180;20166;51.738;7.158;2023-08-31T00:05:08;100262.00;;;13.30
33877;BMP180;20166;51.738;7.158;2023-08-31T00:07:55;100255.00;;;13.40
33877;BMP180;20166;51.738;7.158;2023-08-31T00:10:42;100258.00;;;13.40
33877;BMP180;20166;51.738;7.158;2023-08-31T00:13:28;100254.00;;;13.40
33877;BMP180;20166;51.738;7.158;2023-08-31T00:16:15;100262.00;;;13.40
33877;BMP180;20166;51.738;7.158;2023-08-31T00:19:03;100261.00;;;13.40
33877;BMP180;20166;51.738;7.158;2023-08-31T00:21:51;100261.00;;;13.40
33877;BMP180;20166;51.738;7.158;2023-08-31T00:24:37;100251.00;;;13.40
33877;BMP180;20166;51.738;7.158;2023-08-31T00:27:23;100251.00;;;13.40
33877;BMP180;20166;51.738;7.158;2023-08-31T00:30:11;100254.00;;;13.40
33877;BMP180;20166;51.738;7.158;2023-08-31T00:32:59;100249.00;;;13.50
33877;BMP180;20166;51.738;7.158;2023-08-31T00:35:45;100251.00;;;13.40
33877;BMP180;20166;51.738;7.158;2023-08-31T00:38:33;100251.00;;;13.40
33877;BMP180;20166;51.738;7.158;2023-08-31T00:41:19;100253.00;;;13.40
33877;BMP180;20166;51.738;7.158;2023-08-31T00:44:06;100256.00;;;13.40
33877;BMP180;20166;51.738;7.158;2023-08-31T00:46:52;100259.00;;;13.40
33877;BMP180;20166;51.738;7.158;2023-08-31T00:49:40;100258.00;;;13.40
33877;BMP180;20166;51.738;7.158;2023-08-31T00:52:26;100262.00;;;13.40
33877;BMP180;20166;51.738;7.158;2023-08-31T00:55:14;100252.00;;;13.30
33877;BMP180;20166;51.738;7.158;2023-08-31T00:58:03;100257.00;;;13.30
33877;BMP180;20166;51.738;7.158;2023-08-31T01:00:58;100258.00;;;13.30
33877;BMP180;20166;51.738;7.158;2023-08-31T01:03:51;100256.00;;;13.20
33877;BMP180;20166;51.738;7.158;2023-08-31T01:06:54;100259.00;;;13.20
33877;BMP180;20166;51.738;7.158;2023-08-31T01:09:47;100254.00;;;13.10
33877;BMP180;20166;51.738;7.158;2023-08-31T01:12:42;100257.00;;;13.10
33877;BMP180;20166;51.738;7.158;2023-08-31T01:15:31;100251.00;;;13.10
33877;BMP180;20166;51.738;7.158;2023-08-31T01:18:19;100252.00;;;13.00
33877;BMP180;20166;51.738;7.158;2023-08-31T01:21:12;100257.00;;;13.00
33877;BMP180;20166;51.738;7.158;2023-08-31T01:24:05;100265.00;;;12.90
33877;BMP180;20166;51.738;7.158;2023-08-31T01:26:52;100262.00;;;13.00
33877;BMP180;20166;51.738;7.158;2023-08-31T01:29:39;100259.00;;;13.00
33877;BMP180;20166;51.738;7.158;2023-08-31T01:32:25;100265.00;;;12.90
33877;BMP180;20166;51.738;7.158;2023-08-31T01:35:14;100265.00;;;12.90
33877;BMP180;20166;51.738;7.158;2023-08-31T01:38:03;100262.00;;;13.00
33877;BMP180;20166;51.738;7.158;2023-08-31T01:41:00;100261.00;;;13.00
33877;BMP180;20166;51.738;7.158;2023-08-31T01:43:48;100259.00;;;13.00
33877;BMP180;20166;51.738;7.158;2023-08-31T01:46:36;100261.00;;;13.00
33877;BMP180;20166;51.738;7.158;2023-08-31T01:49:24;100258.00;;;13.00
33877;BMP180;20166;51.738;7.158;2023-08-31T01:52:10;100257.00;;;12.90
33877;BMP180;20166;51.738;7.158;2023-08-31T01:54:56;100261.00;;;12.90
33877;BMP180;20166;51.738;7.158;2023-08-31T01:57:44;100258.00;;;12.80
33877;BMP180;20166;51.738;7.158;2023-08-31T02:00:30;100264.00;;;12.80
33877;BMP180;20166;51.738;7.158;2023-08-31T02:03:19;100266.00;;;12.80
33877;BMP180;20166;51.738;7.158;2023-08-31T02:06:07;100271.00;;;12.70
33877;BMP180;20166;51.738;7.158;2023-08-31T02:08:53;100274.00;;;12.70
33877;BMP180;20166;51.738;7.158;2023-08-31T02:11:39;100272.00;;;12.60
33877;BMP180;20166;51.738;7.158;2023-08-31T02:14:29;100267.00;;;12.50
33877;BMP180;20166;51.738;7.158;2023-08-31T02:17:15;100265.00;;;12.50
33877;BMP180;20166;51.738;7.158;2023-08-31T02:20:02;100266.00;;;12.50
33877;BMP180;20166;51.738;7.158;2023-08-31T02:22:49;100264.00;;;12.40
33877;BMP180;20166;51.738;7.158;2023-08-31T02:25:35;100266.00;;;12.40
33877;BMP180;20166;51.738;7.158;2023-08-31T02:28:22;100265.00;;;12.40
33877;BMP180;20166;51.738;7.158;2023-08-31T02:31:10;100271.00;;;12.30
33877;BMP180;20166;51.738;7.158;2023-08-31T02:33:56;100271.00;;;12.30
33877;BMP180;20166;51.738;7.158;2023-08-31T02:36:43;100272.00;;;12.30
33877;BMP180;20166;51.738;7.158;2023-08-31T02:39:29;100278.00;;;12.20
33877;BMP180;20166;51.738;7.158;2023-08-31T02:42:16;100274.00;;;12.20
33877;BMP180;20166;51.738;7.158;2023-08-31T02:45:03;100277.00;;;12.20
33877;BMP180;20166;51.738;7.158;2023-08-31T02:47:51;100274.00;;;12.10
33877;BMP180;20166;51.738;7.158;2023-08-31T02:50:38;100277.00;;;12.10
33877;BMP180;20166;51.738;7.158;2023-08-31T02:53:24;100277.00;;;12.00
33877;BMP180;20166;51.738;7.158;2023-08-31T02:56:10;100274.00;;;12.00
33877;BMP180;20166;51.738;7.158;2023-08-31T02:58:56;100276.00;;;12.00
33877;BMP180;20166;51.738;7.158;2023-08-31T03:01:42;100278.00;;;12.00
33877;BMP180;20166;51.738;7.158;2023-08-31T03:04:32;100279.00;;;12.00
33877;BMP180;20166;51.738;7.158;2023-08-31T03:07:19;100275.00;;;12.00
33877;BMP180;20166;51.738;7.158;2023-08-31T03:10:06;100271.00;;;12.10
33877;BMP180;20166;51.738;7.158;2023-08-31T03:12:54;100274.00;;;12.10
33877;BMP180;20166;51.738;7.158;2023-08-31T03:15:41;100275.00;;;12.10
33877;BMP180;20166;51.738;7.158;2023-08-31T03:18:27;100280.00;;;12.10
33877;BMP180;20166;51.738;7.158;2023-08-31T03:21:15;100275.00;;;12.10
33877;BMP180;20166;51.738;7.158;2023-08-31T03:24:01;100273.00;;;12.20
33877;BMP180;20166;51.738;7.158;2023-08-31T03:26:48;100278.00;;;12.20
33877;BMP180;20166;51.738;7.158;2023-08-31T03:29:34;100283.00;;;12.20
33877;BMP180;20166;51.738;7.158;2023-08-31T03:32:21;100283.00;;;12.30
33877;BMP180;20166;51.738;7.158;2023-08-31T03:35:08;100265.00;;;12.30
33877;BMP180;20166;51.738;7.158;2023-08-31T03:37:56;100267.00;;;12.30
33877;BMP180;20166;51.738;7.158;2023-08-31T03:40:42;100264.00;;;12.40
33877;BMP180;20166;51.738;7.158;2023-08-31T03:43:29;100270.00;;;12.50
33877;BMP180;20166;51.738;7.158;2023-08-31T03:46:15;100264.00;;;12.40
33877;BMP180;20166;51.738;7.158;2023-08-31T03:49:01;100270.00;;;12.40
33877;BMP180;20166;51.738;7.158;2023-08-31T03:51:48;100264.00;;;12.40
33877;BMP180;20166;51.738;7.158;2023-08-31T03:54:35;100270.00;;;12.40
33877;BMP180;20166;51.738;7.158;2023-08-31T03:57:22;100273.00;;;12.40
33877;BMP180;20166;51.738;7.158;2023-08-31T04:00:09;100273.00;;;12.40
33877;BMP180;20166;51.738;7.158;2023-08-31T04:02:57;100274.00;;;12.50
33877;BMP180;20166;51.738;7.158;2023-08-31T04:05:46;100280.00;;;12.50
33877;BMP180;20166;51.738;7.158;2023-08-31T04:08:33;100286.00;;;12.50
33877;BMP180;20166;51.738;7.158;2023-08-31T04:11:21;100281.00;;;12.50
33877;BMP180;20166;51.738;7.158;2023-08-31T04:14:07;100276.00;;;12.50
33877;BMP180;20166;51.738;7.158;2023-08-31T04:16:54;100271.00;;;12.50
33877;BMP180;20166;51.738;7.158;2023-08-31T04:19:40;100281.00;;;12.50
33877;BMP180;20166;51.738;7.158;2023-08-31T04:22:27;100286.00;;;12.50
33877;BMP180;20166;51.738;7.158;2023-08-31T04:25:13;100288.00;;;12.50
33877;BMP180;20166;51.738;7.158;2023-08-31T04:28:02;100288.00;;;12.50
33877;BMP180;20166;51.738;7.158;2023-08-31T04:30:48;100299.00;;;12.60
33877;BMP180;20166;51.738;7.158;2023-08-31T04:33:35;100293.00;;;12.60
33877;BMP180;20166;51.738;7.158;2023-08-31T04:36:22;100301.00;;;12.60
33877;BMP180;20166;51.738;7.158;2023-08-31T04:39:08;100306.00;;;12.60
33877;BMP180;20166;51.738;7.158;2023-08-31T04:41:54;100301.00;;;12.60
33877;BMP180;20166;51.738;7.158;2023-08-31T04:44:42;100301.00;;;12.60
33877;BMP180;20166;51.738;7.158;2023-08-31T04:47:28;100318.00;;;12.60
33877;BMP180;20166;51.738;7.158;2023-08-31T04:50:15;100307.00;;;12.60
33877;BMP180;20166;51.738;7.158;2023-08-31T04:53:01;100324.00;;;12.50
33877;BMP180;20166;51.738;7.158;2023-08-31T04:55:48;100317.00;;;12.50
33877;BMP180;20166;51.738;7.158;2023-08-31T04:58:34;100324.00;;;12.60
33877;BMP180;20166;51.738;7.158;2023-08-31T05:01:22;100321.00;;;12.60
33877;BMP180;20166;51.738;7.158;2023-08-31T05:04:08;100335.00;;;12.60
33877;BMP180;20166;51.738;7.158;2023-08-31T05:06:54;100332.00;;;12.60
33877;BMP180;20166;51.738;7.158;2023-08-31T05:09:41;100335.00;;;12.60
33877;BMP180;20166;51.738;7.158;2023-08-31T05:12:27;100339.00;;;12.70
33877;BMP180;20166;51.738;7.158;2023-08-31T05:15:14;100336.00;;;12.70
33877;BMP180;20166;51.738;7.158;2023-08-31T05:18:01;100342.00;;;12.80
33877;BMP180;20166;51.738;7.158;2023-08-31T05:20:48;100351.00;;;12.80
33877;BMP180;20166;51.738;7.158;2023-08-31T05:23:35;100350.00;;;12.80
33877;BMP180;20166;51.738;7.158;2023-08-31T05:26:22;100361.00;;;12.80
33877;BMP180;20166;51.738;7.158;2023-08-31T05:29:08;100366.00;;;12.90
33877;BMP180;20166;51.738;7.158;2023-08-31T05:31:55;100365.00;;;12.80
33877;BMP180;20166;51.738;7.158;2023-08-31T05:34:43;100359.00;;;12.90
33877;BMP180;20166;51.738;7.158;2023-08-31T05:37:32;100357.00;;;12.80
33877;BMP180;20166;51.738;7.158;2023-08-31T05:40:18;100359.00;;;12.90
33877;BMP180;20166;51.738;7.158;2023-08-31T05:43:05;100362.00;;;13.00
33877;BMP180;20166;51.738;7.158;2023-08-31T05:45:51;100370.00;;;13.00
33877;BMP180;20166;51.738;7.158;2023-08-31T05:48:37;100366.00;;;13.00
33877;BMP180;20166;51.738;7.158;2023-08-31T05:51:25;100365.00;;;13.10
33877;BMP180;20166;51.738;7.158;2023-08-31T05:54:12;100375.00;;;13.10
33877;BMP180;20166;51.738;7.158;2023-08-31T05:56:58;100384.00;;;13.10
33877;BMP180;20166;51.738;7.158;2023-08-31T05:59:44;100382.00;;;13.10
33877;BMP180;20166;51.738;7.158;2023-08-31T06:02:31;100377.00;;;13.10
33877;BMP180;20166;51.738;7.158;2023-08-31T06:05:17;100390.00;;;13.10
33877;BMP180;20166;51.738;7.158;2023-08-31T06:08:06;100392.00;;;13.20
33877;BMP180;20166;51.738;7.158;2023-08-31T06:10:52;100392.00;;;13.20
33877;BMP180;20166;51.738;7.158;2023-08-31T06:13:40;100392.00;;;13.20
33877;BMP180;20166;51.738;7.158;2023-08-31T06:16:26;100392.00;;;13.20
33877;BMP180;20166;51.738;7.158;2023-08-31T06:19:13;100393.00;;;13.20
33877;BMP180;20166;51.738;7.158;2023-08-31T06:22:00;100407.00;;;13.30
33877;BMP180;20166;51.738;7.158;2023-08-31T06:24:48;100403.00;;;13.40
33877;BMP180;20166;51.738;7.158;2023-08-31T06:27:35;100405.00;;;13.40
33877;BMP180;20166;51.738;7.158;2023-08-31T06:30:21;100406.00;;;13.50
33877;BMP180;20166;51.738;7.158;2023-08-31T06:33:07;100403.00;;;13.50
33877;BMP180;20166;51.738;7.158;2023-08-31T06:35:54;100405.00;;;13.60
33877;BMP180;20166;51.738;7.158;2023-08-31T06:38:41;100404.00;;;13.70
33877;BMP180;20166;51.738;7.158;2023-08-31T06:41:28;100407.00;;;13.70
33877;BMP180;20166;51.738;7.158;2023-08-31T06:44:15;100403.00;;;13.70
33877;BMP180;20166;51.738;7.158;2023-08-31T06:47:03;100406.00;;;13.80
33877;BMP180;20166;51.738;7.158;2023-08-31T06:49:49;100404.00;;;13.90
33877;BMP180;20166;51.738;7.158;2023-08-31T06:52:35;100405.00;;;13.90
33877;BMP180;20166;51.738;7.158;2023-08-31T06:55:22;100403.00;;;14.10
33877;BMP180;20166;51.738;7.158;2023-08-31T06:58:10;100404.00;;;14.20
33877;BMP180;20166;51.738;7.158;2023-08-31T07:00:57;100409.00;;;14.30
33877;BMP180;20166;51.738;7.158;2023-08-31T07:03:43;100404.00;;;14.30
33877;BMP180;20166;51.738;7.158;2023-08-31T07:06:29;100405.00;;;14.40
33877;BMP180;20166;51.738;7.158;2023-08-31T07:09:16;100406.00;;;14.50
33877;BMP180;20166;51.738;7.158;2023-08-31T07:12:03;100414.00;;;14.40
33877;BMP180;20166;51.738;7.158;2023-08-31T07:14:51;100412.00;;;14.40
33877;BMP180;20166;51.738;7.158;2023-08-31T07:17:37;100406.00;;;14.50
33877;BMP180;20166;51.738;7.158;2023-08-31T07:20:24;100413.00;;;14.60
33877;BMP180;20166;51.738;7.158;2023-08-31T07:23:10;100415.00;;;14.60
33877;BMP180;20166;51.738;7.158;2023-08-31T07:25:57;100414.00;;;14.50
33877;BMP180;20166;51.738;7.158;2023-08-31T07:28:45;100414.00;;;14.60
33877;BMP180;20166;51.738;7.158;2023-08-31T07:31:32;100423.00;;;14.60
33877;BMP180;20166;51.738;7.158;2023-08-31T07:34:19;100409.00;;;14.60
33877;BMP180;20166;51.738;7.158;2023-08-31T07:37:05;100424.00;;;14.60
33877;BMP180;20166;51.738;7.158;2023-08-31T07:39:52;100422.00;;;14.70
33877;BMP180;20166;51.738;7.158;2023-08-31T07:42:38;100443.00;;;14.70
33877;BMP180;20166;51.738;7.158;2023-08-31T07:45:24;100432.00;;;14.80
33877;BMP180;20166;51.738;7.158;2023-08-31T07:48:12;100417.00;;;14.80
33877;BMP180;20166;51.738;7.158;2023-08-31T07:50:58;100440.00;;;14.80
33877;BMP180;20166;51.738;7.158;2023-08-31T07:53:44;100443.00;;;14.90
33877;BMP180;20166;51.738;7.158;2023-08-31T07:56:30;100438.00;;;14.90
33877;BMP180;20166;51.738;7.158;2023-08-31T07:59:17;100435.00;;;14.90
33877;BMP180;20166;51.738;7.158;2023-08-31T08:02:04;100445.00;;;14.90
33877;BMP180;20166;51.738;7.158;2023-08-31T08:04:51;100450.00;;;14.90
33877;BMP180;20166;51.738;7.158;2023-08-31T08:07:37;100446.00;;;14.90
33877;BMP180;20166;51.738;7.158;2023-08-31T08:10:26;100449.00;;;14.90
33877;BMP180;20166;51.738;7.158;2023-08-31T08:13:12;100452.00;;;14.90
33877;BMP180;20166;51.738;7.158;2023-08-31T08:15:59;100452.00;;;15.00
33877;BMP180;20166;51.738;7.158;2023-08-31T08:18:45;100455.00;;;15.10
33877;BMP180;20166;51.738;7.158;2023-08-31T08:21:33;100452.00;;;15.40
33877;BMP180;20166;51.738;7.158;2023-08-31T08:24:19;100452.00;;;15.60
33877;BMP180;20166;51.738;7.158;2023-08-31T08:27:06;100457.00;;;15.70
33877;BMP180;20166;51.738;7.158;2023-08-31T08:29:52;100462.00;;;15.80
33877;BMP180;20166;51.738;7.158;2023-08-31T08:32:39;100461.00;;;15.90
33877;BMP180;20166;51.738;7.158;2023-08-31T08:35:25;100461.00;;;16.10
33877;BMP180;20166;51.738;7.158;2023-08-31T08:38:13;100463.00;;;16.10
33877;BMP180;20166;51.738;7.158;2023-08-31T08:41:04;100473.00;;;16.20
33877;BMP180;20166;51.738;7.158;2023-08-31T08:43:51;100472.00;;;16.20
33877;BMP180;20166;51.738;7.158;2023-08-31T08:46:38;100473.00;;;16.10
33877;BMP180;20166;51.738;7.158;2023-08-31T08:49:26;100469.00;;;16.20
33877;BMP180;20166;51.738;7.158;2023-08-31T08:52:13;100473.00;;;16.30
33877;BMP180;20166;51.738;7.158;2023-08-31T08:55:02;100474.00;;;16.30
33877;BMP180;20166;51.738;7.158;2023-08-31T08:57:49;100472.00;;;16.30
33877;BMP180;20166;51.738;7.158;2023-08-31T09:00:36;100481.00;;;16.30
33877;BMP180;20166;51.738;7.158;2023-08-31T09:03:24;100476.00;;;16.40
33877;BMP180;20166;51.738;7.158;2023-08-31T09:06:10;100483.00;;;16.50
33877;BMP180;20166;51.738;7.158;2023-08-31T09:08:57;100478.00;;;16.50
33877;BMP180;20166;51.738;7.158;2023-08-31T09:11:45;100475.00;;;16.60
33877;BMP180;20166;51.738;7.158;2023-08-31T09:14:31;100470.00;;;16.80
33877;BMP180;20166;51.738;7.158;2023-08-31T09:17:17;100485.00;;;16.90
33877;BMP180;20166;51.738;7.158;2023-08-31T09:20:04;100486.00;;;16.90
33877;BMP180;20166;51.738;7.158;2023-08-31T09:22:51;100481.00;;;17.00
33877;BMP180;20166;51.738;7.158;2023-08-31T09:25:42;100484.00;;;17.10
33877;BMP180;20166;51.738;7.158;2023-08-31T09:28:30;100480.00;;;17.00
33877;BMP180;20166;51.738;7.158;2023-08-31T09:31:16;100492.00;;;17.00
33877;BMP180;20166;51.738;7.158;2023-08-31T09:34:03;100491.00;;;17.00
33877;BMP180;20166;51.738;7.158;2023-08-31T09:36:49;100488.00;;;17.10
33877;BMP180;20166;51.738;7.158;2023-08-31T09:39:35;100493.00;;;17.00
33877;BMP180;20166;51.738;7.158;2023-08-31T09:42:22;100501.00;;;17.00
33877;BMP180;20166;51.738;7.158;2023-08-31T09:45:29;100506.00;;;16.90
33877;BMP180;20166;51.738;7.158;2023-08-31T09:48:30;100500.00;;;16.90
33877;BMP180;20166;51.738;7.158;2023-08-31T09:51:18;100501.00;;;17.00
33877;BMP180;20166;51.738;7.158;2023-08-31T09:54:09;100493.00;;;17.10
33877;BMP180;20166;51.738;7.158;2023-08-31T09:56:58;100506.00;;;17.10
33877;BMP180;20166;51.738;7.158;2023-08-31T09:59:46;100504.00;;;17.10
33877;BMP180;20166;51.738;7.158;2023-08-31T10:02:34;100493.00;;;17.10
33877;BMP180;20166;51.738;7.158;2023-08-31T10:05:21;100500.00;;;17.20
33877;BMP180;20166;51.738;7.158;2023-08-31T10:08:11;100501.00;;;17.30
33877;BMP180;20166;51.738;7.158;2023-08-31T10:10:59;100494.00;;;17.30
33877;BMP180;20166;51.738;7.158;2023-08-31T10:13:47;100499.00;;;17.30
33877;BMP180;20166;51.738;7.158;2023-08-31T10:16:34;100500.00;;;17.60
33877;BMP180;20166;51.738;7.158;2023-08-31T10:19:26;100508.00;;;18.10
33877;BMP180;20166;51.738;7.158;2023-08-31T10:22:12;100484.00;;;18.60
33877;BMP180;20166;51.738;7.158;2023-08-31T10:25:00;100500.00;;;18.70
33877;BMP180;20166;51.738;7.158;2023-08-31T10:27:48;100498.00;;;18.60
33877;BMP180;20166;51.738;7.158;2023-08-31T10:30:37;100507.00;;;18.60
33877;BMP180;20166;51.738;7.158;2023-08-31T10:33:23;100504.00;;;18.90
33877;BMP180;20166;51.738;7.158;2023-08-31T10:36:12;100502.00;;;18.90
33877;BMP180;20166;51.738;7.158;2023-08-31T10:39:06;100508.00;;;19.10
33877;BMP180;20166;51.738;7.158;2023-08-31T10:41:54;100505.00;;;19.00
33877;BMP180;20166;51.738;7.158;2023-08-31T10:44:42;100505.00;;;18.90
33877;BMP180;20166;51.738;7.158;2023-08-31T10:47:36;100506.00;;;18.60
33877;BMP180;20166;51.738;7.158;2023-08-31T10:50:25;100510.00;;;18.40
33877;BMP180;20166;51.738;7.158;2023-08-31T10:53:13;100519.00;;;18.30
33877;BMP180;20166;51.738;7.158;2023-08-31T10:55:59;100513.00;;;18.10
33877;BMP180;20166;51.738;7.158;2023-08-31T10:58:57;100511.00;;;18.10
33877;BMP180;20166;51.738;7.158;2023-08-31T11:01:51;100511.00;;;18.20
33877;BMP180;20166;51.738;7.158;2023-08-31T11:04:59;100508.00;;;18.60
33877;BMP180;20166;51.738;7.158;2023-08-31T11:07:47;100503.00;;;19.10
33877;BMP180;20166;51.738;7.158;2023-08-31T11:10:36;100505.00;;;19.50
33877;BMP180;20166;51.738;7.158;2023-08-31T11:13:23;100502.00;;;19.60
33877;BMP180;20166;51.738;7.158;2023-08-31T11:16:09;100492.00;;;19.60
33877;BMP180;20166;51.738;7.158;2023-08-31T11:18:56;100489.00;;;19.30
33877;BMP180;20166;51.738;7.158;2023-08-31T11:21:42;100498.00;;;19.10
33877;BMP180;20166;51.738;7.158;2023-08-31T11:24:29;100503.00;;;19.00
33877;BMP180;20166;51.738;7.158;2023-08-31T11:27:20;100497.00;;;18.70
33877;BMP180;20166;51.738;7.158;2023-08-31T11:30:15;100500.00;;;18.40
33877;BMP180;20166;51.738;7.158;2023-08-31T11:33:03;100500.00;;;18.20
33877;BMP180;20166;51.738;7.158;2023-08-31T11:35:49;100488.00;;;18.10
33877;BMP180;20166;51.738;7.158;2023-08-31T11:38:36;100486.00;;;18.10
33877;BMP180;20166;51.738;7.158;2023-08-31T11:41:23;100484.00;;;18.40
33877;BMP180;20166;51.738;7.158;2023-08-31T11:44:12;100492.00;;;18.70
33877;BMP180;20166;51.738;7.158;2023-08-31T11:46:59;100481.00;;;19.20
33877;BMP180;20166;51.738;7.158;2023-08-31T11:49:45;100482.00;;;19.60
33877;BMP180;20166;51.738;7.158;2023-08-31T11:52:34;100492.00;;;19.90
33877;BMP180;20166;51.738;7.158;2023-08-31T11:55:21;100487.00;;;19.80
33877;BMP180;20166;51.738;7.158;2023-08-31T11:58:08;100479.00;;;19.80
33877;BMP180;20166;51.738;7.158;2023-08-31T12:00:56;100483.00;;;20.30
33877;BMP180;20166;51.738;7.158;2023-08-31T12:03:44;100466.00;;;20.70
33877;BMP180;20166;51.738;7.158;2023-08-31T12:06:34;100476.00;;;21.00
33877;BMP180;20166;51.738;7.158;2023-08-31T12:09:21;100473.00;;;21.40
33877;BMP180;20166;51.738;7.158;2023-08-31T12:12:08;100467.00;;;21.50
33877;BMP180;20166;51.738;7.158;2023-08-31T12:14:54;100465.00;;;21.80
33877;BMP180;20166;51.738;7.158;2023-08-31T12:17:42;100468.00;;;22.10
33877;BMP180;20166;51.738;7.158;2023-08-31T12:20:31;100470.00;;;22.30
33877;BMP180;20166;51.738;7.158;2023-08-31T12:23:20;100479.00;;;22.10
33877;BMP180;20166;51.738;7.158;2023-08-31T12:26:07;100476.00;;;21.50
33877;BMP180;20166;51.738;7.158;2023-08-31T12:28:54;100478.00;;;21.10
33877;BMP180;20166;51.738;7.158;2023-08-31T12:31:41;100458.00;;;20.80
33877;BMP180;20166;51.738;7.158;2023-08-31T12:34:30;100468.00;;;21.20
33877;BMP180;20166;51.738;7.158;2023-08-31T12:37:17;100463.00;;;21.30
33877;BMP180;20166;51.738;7.158;2023-08-31T12:40:04;100483.00;;;21.40
33877;BMP180;20166;51.738;7.158;2023-08-31T12:42:52;100468.00;;;21.40
33877;BMP180;20166;51.738;7.158;2023-08-31T12:45:38;100476.00;;;21.50
33877;BMP180;20166;51.738;7.158;2023-08-31T12:48:25;100470.00;;;21.40
33877;BMP180;20166;51.738;7.158;2023-08-31T12:51:13;100487.00;;;21.10
33877;BMP180;20166;51.738;7.158;2023-08-31T12:53:59;100485.00;;;20.80
33877;BMP180;20166;51.738;7.158;2023-08-31T12:56:45;100485.00;;;20.50
33877;BMP180;20166;51.738;7.158;2023-08-31T12:59:32;100487.00;;;20.20
33877;BMP180;20166;51.738;7.158;2023-08-31T13:02:19;100494.00;;;20.00
33877;BMP180;20166;51.738;7.158;2023-08-31T13:05:06;100486.00;;;19.90
33877;BMP180;20166;51.738;7.158;2023-08-31T13:07:54;100485.00;;;19.80
33877;BMP180;20166;51.738;7.158;2023-08-31T13:10:41;100502.00;;;19.80
33877;BMP180;20166;51.738;7.158;2023-08-31T13:13:27;100509.00;;;19.90
33877;BMP180;20166;51.738;7.158;2023-08-31T13:16:14;100505.00;;;19.90
33877;BMP180;20166;51.738;7.158;2023-08-31T13:19:00;100524.00;;;19.90
33877;BMP180;20166;51.738;7.158;2023-08-31T13:21:46;100520.00;;;19.90
33877;BMP180;20166;51.738;7.158;2023-08-31T13:24:34;100514.00;;;19.90
33877;BMP180;20166;51.738;7.158;2023-08-31T13:27:20;100520.00;;;19.90
33877;BMP180;20166;51.738;7.158;2023-08-31T13:30:07;100518.00;;;20.10
33877;BMP180;20166;51.738;7.158;2023-08-31T13:32:54;100528.00;;;19.90
33877;BMP180;20166;51.738;7.158;2023-08-31T13:35:41;100515.00;;;19.50
33877;BMP180;20166;51.738;7.158;2023-08-31T13:38:28;100523.00;;;19.30
33877;BMP180;20166;51.738;7.158;2023-08-31T13:41:16;100516.00;;;19.00
33877;BMP180;20166;51.738;7.158;2023-08-31T13:44:03;100525.00;;;18.80
33877;BMP180;20166;51.738;7.158;2023-08-31T13:46:49;100521.00;;;18.60
33877;BMP180;20166;51.738;7.158;2023-08-31T13:49:36;100540.00;;;18.70
33877;BMP180;20166;51.738;7.158;2023-08-31T13:52:23;100532.00;;;18.80
33877;BMP180;20166;51.738;7.158;2023-08-31T13:55:09;100533.00;;;19.10
33877;BMP180;20166;51.738;7.158;2023-08-31T13:58:03;100530.00;;;19.50
33877;BMP180;20166;51.738;7.158;2023-08-31T14:00:50;100531.00;;;19.70
33877;BMP180;20166;51.738;7.158;2023-08-31T14:03:36;100517.00;;;20.20
33877;BMP180;20166;51.738;7.158;2023-08-31T14:06:23;100535.00;;;20.60
33877;BMP180;20166;51.738;7.158;2023-08-31T14:09:09;100533.00;;;20.80
33877;BMP180;20166;51.738;7.158;2023-08-31T14:11:55;100544.00;;;20.50
33877;BMP180;20166;51.738;7.158;2023-08-31T14:14:43;100541.00;;;20.30
33877;BMP180;20166;51.738;7.158;2023-08-31T14:17:31;100540.00;;;20.00
33877;BMP180;20166;51.738;7.158;2023-08-31T14:20:17;100558.00;;;19.80
33877;BMP180;20166;51.738;7.158;2023-08-31T14:23:04;100559.00;;;19.60
33877;BMP180;20166;51.738;7.158;2023-08-31T14:25:50;100557.00;;;19.40
33877;BMP180;20166;51.738;7.158;2023-08-31T14:28:36;100576.00;;;19.20
33877;BMP180;20166;51.738;7.158;2023-08-31T14:31:24;100564.00;;;19.00
33877;BMP180;20166;51.738;7.158;2023-08-31T14:34:11;100579.00;;;18.90
33877;BMP180;20166;51.738;7.158;2023-08-31T14:36:57;100575.00;;;18.90
33877;BMP180;20166;51.738;7.158;2023-08-31T14:39:45;100579.00;;;18.80
33877;BMP180;20166;51.738;7.158;2023-08-31T14:42:32;100582.00;;;18.80
33877;BMP180;20166;51.738;7.158;2023-08-31T14:45:18;100578.00;;;18.70
33877;BMP180;20166;51.738;7.158;2023-08-31T14:48:07;100592.00;;;18.60
33877;BMP180;20166;51.738;7.158;2023-08-31T14:50:54;100598.00;;;18.50
33877;BMP180;20166;51.738;7.158;2023-08-31T14:53:40;100597.00;;;18.50
33877;BMP180;20166;51.738;7.158;2023-08-31T14:56:27;100591.00;;;18.50
33877;BMP180;20166;51.738;7.158;2023-08-31T14:59:13;100604.00;;;18.40
33877;BMP180;20166;51.738;7.158;2023-08-31T15:02:00;100599.00;;;18.40
33877;BMP180;20166;51.738;7.158;2023-08-31T15:04:51;100606.00;;;18.40
33877;BMP180;20166;51.738;7.158;2023-08-31T15:07:38;100605.00;;;18.30
33877;BMP180;20166;51.738;7.158;2023-08-31T15:10:26;100600.00;;;18.20
33877;BMP180;20166;51.738;7.158;2023-08-31T15:13:13;100600.00;;;18.20
33877;BMP180;20166;51.738;7.158;2023-08-31T15:16:00;100603.00;;;18.30
33877;BMP180;20166;51.738;7.158;2023-08-31T15:18:46;100601.00;;;18.30
33877;BMP180;20166;51.738;7.158;2023-08-31T15:21:34;100597.00;;;18.30
33877;BMP180;20166;51.738;7.158;2023-08-31T15:24:21;100601.00;;;18.30
33877;BMP180;20166;51.738;7.158;2023-08-31T15:27:07;100602.00;;;18.20
33877;BMP180;20166;51.738;7.158;2023-08-31T15:29:53;100605.00;;;18.10
33877;BMP180;20166;51.738;7.158;2023-08-31T15:32:40;100611.00;;;18.10
33877;BMP180;20166;51.738;7.158;2023-08-31T15:35:27;100599.00;;;18.10
33877;BMP180;20166;51.738;7.158;2023-08-31T15:38:14;100606.00;;;18.10
33877;BMP180;20166;51.738;7.158;2023-08-31T15:41:03;100609.00;;;18.00
33877;BMP180;20166;51.738;7.158;2023-08-31T15:43:50;100604.00;;;18.00
33877;BMP180;20166;51.738;7.158;2023-08-31T15:46:37;100612.00;;;17.90
33877;BMP180;20166;51.738;7.158;2023-08-31T15:49:24;100610.00;;;17.90
33877;BMP180;20166;51.738;7.158;2023-08-31T15:52:11;100611.00;;;17.80